sensor_id;sensor_type;location;lat;lon;timestamp;P1;P2;P0
56688;PMS5003;42565;53.342;-1.534;2024-03-17T00:02:26;34;32;
56688;PMS5003;42565;53.342;-1.534;2024-03-17T00:04:53;32;29;
56688;PMS5003;42565;53.342;-1.534;2024-03-17T00:07:20;26;25;
56688;PMS5003;42565;53.342;-1.534;2024-03-17T00:09:47;32;32;
56688;PMS5003;42565;53.342;-1.534;2024-03-17T00:12:14;35;33;
56688;PMS5003;42565;53.342;-1.534;2024-03-17T00:14:41;34;33;
56688;PMS5003;42565;53.342;-1.534;2024-03-17T00:17:08;31;31;
56688;PMS5003;42565;53.342;-1.534;2024-03-17T00:19:36;34;30;
56688;PMS5003;42565;53.342;-1.534;2024-03-17T00:22:03;32;29;
56688;PMS5003;42565;53.342;-1.534;2024-03-17T00:24:30;37;34;
56688;PMS5003;42565;53.342;-1.534;2024-03-17T00:26:57;34;31;
56688;PMS5003;42565;53.342;-1.534;2024-03-17T00:29:24;34;31;
56688;PMS5003;42565;53.342;-1.534;2024-03-17T00:31:51;33;30;
56688;PMS5003;42565;53.342;-1.534;2024-03-17T00:34:18;32;30;
56688;PMS5003;42565;53.342;-1.534;2024-03-17T00:36:45;37;35;
56688;PMS5003;42565;53.342;-1.534;2024-03-17T00:39:12;39;33;
56688;PMS5003;42565;53.342;-1.534;2024-03-17T00:41:40;28;25;
56688;PMS5003;42565;53.342;-1.534;2024-03-17T00:44:06;32;31;
56688;PMS5003;42565;53.342;-1.534;2024-03-17T00:46:33;32;30;
56688;PMS5003;42565;53.342;-1.534;2024-03-17T00:49:00;28;25;
56688;PMS5003;42565;53.342;-1.534;2024-03-17T00:51:27;32;29;
56688;PMS5003;42565;53.342;-1.534;2024-03-17T00:53:54;32;31;
56688;PMS5003;42565;53.342;-1.534;2024-03-17T00:56:20;35;31;
56688;PMS5003;42565;53.342;-1.534;2024-03-17T00:58:47;37;33;
56688;PMS5003;42565;53.342;-1.534;2024-03-17T01:01:14;29;27;
56688;PMS5003;42565;53.342;-1.534;2024-03-17T01:03:41;26;24;
56688;PMS5003;42565;53.342;-1.534;2024-03-17T01:06:08;30;27;
56688;PMS5003;42565;53.342;-1.534;2024-03-17T01:08:35;28;26;
56688;PMS5003;42565;53.342;-1.534;2024-03-17T01:11:02;30;28;
56688;PMS5003;42565;53.342;-1.534;2024-03-17T01:13:30;29;28;
56688;PMS5003;42565;53.342;-1.534;2024-03-17T01:15:57;30;27;
56688;PMS5003;42565;53.342;-1.534;2024-03-17T01:18:24;26;24;
56688;PMS5003;42565;53.342;-1.534;2024-03-17T01:20:51;25;24;
56688;PMS5003;42565;53.342;-1.534;2024-03-17T01:23:18;22;21;
56688;PMS5003;42565;53.342;-1.534;2024-03-17T01:25:45;31;29;
56688;PMS5003;42565;53.342;-1.534;2024-03-17T01:28:12;27;25;
56688;PMS5003;42565;53.342;-1.534;2024-03-17T01:30:40;30;27;
56688;PMS5003;42565;53.342;-1.534;2024-03-17T01:33:07;27;27;
56688;PMS5003;42565;53.342;-1.534;2024-03-17T01:35:34;33;31;
56688;PMS5003;42565;53.342;-1.534;2024-03-17T01:38:01;29;28;
56688;PMS5003;42565;53.342;-1.534;2024-03-17T01:40:28;32;25;
56688;PMS5003;42565;53.342;-1.534;2024-03-17T01:42:55;28;28;
56688;PMS5003;42565;53.342;-1.534;2024-03-17T01:45:26;24;23;
56688;PMS5003;42565;53.342;-1.534;2024-03-17T01:47:54;35;30;
56688;PMS5003;42565;53.342;-1.534;2024-03-17T01:50:24;28;26;
56688;PMS5003;42565;53.342;-1.534;2024-03-17T01:52:51;24;23;
56688;PMS5003;42565;53.342;-1.534;2024-03-17T01:55:22;27;26;
56688;PMS5003;42565;53.342;-1.534;2024-03-17T01:57:50;25;23;
56688;PMS5003;42565;53.342;-1.534;2024-03-17T02:00:18;24;23;
56688;PMS5003;42565;53.342;-1.534;2024-03-17T02:02:45;25;25;
56688;PMS5003;42565;53.342;-1.534;2024-03-17T02:05:12;22;20;
56688;PMS5003;42565;53.342;-1.534;2024-03-17T02:07:40;22;22;
56688;PMS5003;42565;53.342;-1.534;2024-03-17T02:10:07;28;26;
56688;PMS5003;42565;53.342;-1.534;2024-03-17T02:12:35;27;23;
56688;PMS5003;42565;53.342;-1.534;2024-03-17T02:15:02;30;28;
56688;PMS5003;42565;53.342;-1.534;2024-03-17T02:17:30;29;27;
56688;PMS5003;42565;53.342;-1.534;2024-03-17T02:19:56;34;30;
56688;PMS5003;42565;53.342;-1.534;2024-03-17T02:22:23;29;27;
56688;PMS5003;42565;53.342;-1.534;2024-03-17T02:24:50;29;27;
56688;PMS5003;42565;53.342;-1.534;2024-03-17T02:27:17;20;20;
56688;PMS5003;42565;53.342;-1.534;2024-03-17T02:29:45;26;25;
56688;PMS5003;42565;53.342;-1.534;2024-03-17T02:32:12;23;22;
56688;PMS5003;42565;53.342;-1.534;2024-03-17T02:34:39;24;24;
56688;PMS5003;42565;53.342;-1.534;2024-03-17T02:37:06;27;23;
56688;PMS5003;42565;53.342;-1.534;2024-03-17T02:39:34;24;23;
56688;PMS5003;42565;53.342;-1.534;2024-03-17T02:42:01;27;25;
56688;PMS5003;42565;53.342;-1.534;2024-03-17T02:44:30;30;26;
56688;PMS5003;42565;53.342;-1.534;2024-03-17T02:46:58;31;29;
56688;PMS5003;42565;53.342;-1.534;2024-03-17T02:49:25;26;26;
56688;PMS5003;42565;53.342;-1.534;2024-03-17T02:51:53;32;29;
56688;PMS5003;42565;53.342;-1.534;2024-03-17T02:54:20;31;30;
56688;PMS5003;42565;53.342;-1.534;2024-03-17T02:56:47;30;29;
56688;PMS5003;42565;53.342;-1.534;2024-03-17T02:59:14;27;24;
56688;PMS5003;42565;53.342;-1.534;2024-03-17T03:01:42;30;26;
56688;PMS5003;42565;53.342;-1.534;2024-03-17T03:04:09;30;29;
56688;PMS5003;42565;53.342;-1.534;2024-03-17T03:06:37;26;26;
56688;PMS5003;42565;53.342;-1.534;2024-03-17T03:09:04;25;23;
56688;PMS5003;42565;53.342;-1.534;2024-03-17T03:11:31;28;22;
56688;PMS5003;42565;53.342;-1.534;2024-03-17T03:13:58;23;22;
56688;PMS5003;42565;53.342;-1.534;2024-03-17T03:16:25;21;20;
56688;PMS5003;42565;53.342;-1.534;2024-03-17T03:18:52;20;18;
56688;PMS5003;42565;53.342;-1.534;2024-03-17T03:21:19;16;15;
56688;PMS5003;42565;53.342;-1.534;2024-03-17T03:23:45;15;14;
56688;PMS5003;42565;53.342;-1.534;2024-03-17T03:26:13;14;13;
56688;PMS5003;42565;53.342;-1.534;2024-03-17T03:28:40;15;13;
56688;PMS5003;42565;53.342;-1.534;2024-03-17T03:31:10;13;12;
56688;PMS5003;42565;53.342;-1.534;2024-03-17T03:33:37;10;10;
56688;PMS5003;42565;53.342;-1.534;2024-03-17T03:36:07;15;13;
56688;PMS5003;42565;53.342;-1.534;2024-03-17T03:38:35;12;12;
56688;PMS5003;42565;53.342;-1.534;2024-03-17T03:41:06;14;13;
56688;PMS5003;42565;53.342;-1.534;2024-03-17T03:43:34;13;11;
56688;PMS5003;42565;53.342;-1.534;2024-03-17T03:46:02;10;10;
56688;PMS5003;42565;53.342;-1.534;2024-03-17T03:48:30;14;11;
56688;PMS5003;42565;53.342;-1.534;2024-03-17T03:50:57;12;9;
56688;PMS5003;42565;53.342;-1.534;2024-03-17T03:53:24;12;11;
56688;PMS5003;42565;53.342;-1.534;2024-03-17T03:55:51;9;8;
56688;PMS5003;42565;53.342;-1.534;2024-03-17T03:58:18;8;7;
56688;PMS5003;42565;53.342;-1.534;2024-03-17T04:00:44;7;6;
56688;PMS5003;42565;53.342;-1.534;2024-03-17T04:03:11;7;7;
56688;PMS5003;42565;53.342;-1.534;2024-03-17T04:05:38;7;6;
56688;PMS5003;42565;53.342;-1.534;2024-03-17T04:08:05;7;6;
56688;PMS5003;42565;53.342;-1.534;2024-03-17T04:10:33;8;6;
56688;PMS5003;42565;53.342;-1.534;2024-03-17T04:12:59;5;5;
56688;PMS5003;42565;53.342;-1.534;2024-03-17T04:15:26;5;5;
56688;PMS5003;42565;53.342;-1.534;2024-03-17T04:17:53;5;5;
56688;PMS5003;42565;53.342;-1.534;2024-03-17T04:20:19;3;3;
56688;PMS5003;42565;53.342;-1.534;2024-03-17T04:22:47;5;5;
56688;PMS5003;42565;53.342;-1.534;2024-03-17T04:25:14;5;5;
56688;PMS5003;42565;53.342;-1.534;2024-03-17T04:27:41;6;6;
56688;PMS5003;42565;53.342;-1.534;2024-03-17T04:30:08;5;4;
56688;PMS5003;42565;53.342;-1.534;2024-03-17T04:32:36;7;6;
56688;PMS5003;42565;53.342;-1.534;2024-03-17T04:35:04;8;7;
56688;PMS5003;42565;53.342;-1.534;2024-03-17T04:37:31;6;6;
56688;PMS5003;42565;53.342;-1.534;2024-03-17T04:39:58;6;5;
56688;PMS5003;42565;53.342;-1.534;2024-03-17T04:42:25;5;5;
56688;PMS5003;42565;53.342;-1.534;2024-03-17T04:44:51;7;6;
56688;PMS5003;42565;53.342;-1.534;2024-03-17T04:47:18;6;6;
56688;PMS5003;42565;53.342;-1.534;2024-03-17T04:49:45;7;6;
56688;PMS5003;42565;53.342;-1.534;2024-03-17T04:52:12;7;6;
56688;PMS5003;42565;53.342;-1.534;2024-03-17T04:54:40;5;5;
56688;PMS5003;42565;53.342;-1.534;2024-03-17T04:57:07;7;6;
56688;PMS5003;42565;53.342;-1.534;2024-03-17T04:59:34;6;5;
56688;PMS5003;42565;53.342;-1.534;2024-03-17T05:02:01;6;5;
56688;PMS5003;42565;53.342;-1.534;2024-03-17T05:04:29;8;6;
56688;PMS5003;42565;53.342;-1.534;2024-03-17T05:06:56;3;3;
56688;PMS5003;42565;53.342;-1.534;2024-03-17T05:09:24;6;6;
56688;PMS5003;42565;53.342;-1.534;2024-03-17T05:11:51;5;4;
56688;PMS5003;42565;53.342;-1.534;2024-03-17T05:14:18;4;4;
56688;PMS5003;42565;53.342;-1.534;2024-03-17T05:16:47;5;4;
56688;PMS5003;42565;53.342;-1.534;2024-03-17T05:19:15;5;4;
56688;PMS5003;42565;53.342;-1.534;2024-03-17T05:21:42;4;4;
56688;PMS5003;42565;53.342;-1.534;2024-03-17T05:24:10;5;5;
56688;PMS5003;42565;53.342;-1.534;2024-03-17T05:26:37;3;3;
56688;PMS5003;42565;53.342;-1.534;2024-03-17T05:29:05;4;4;
56688;PMS5003;42565;53.342;-1.534;2024-03-17T05:31:32;4;4;
56688;PMS5003;42565;53.342;-1.534;2024-03-17T05:34:00;4;4;
56688;PMS5003;42565;53.342;-1.534;2024-03-17T05:36:28;3;3;
56688;PMS5003;42565;53.342;-1.534;2024-03-17T05:38:55;3;3;
56688;PMS5003;42565;53.342;-1.534;2024-03-17T05:41:22;2;2;
56688;PMS5003;42565;53.342;-1.534;2024-03-17T05:43:48;2;2;
56688;PMS5003;42565;53.342;-1.534;2024-03-17T05:46:15;2;2;
56688;PMS5003;42565;53.342;-1.534;2024-03-17T05:48:43;1;1;
56688;PMS5003;42565;53.342;-1.534;2024-03-17T05:51:10;3;3;
56688;PMS5003;42565;53.342;-1.534;2024-03-17T05:53:39;1;1;
56688;PMS5003;42565;53.342;-1.534;2024-03-17T05:56:06;2;2;
56688;PMS5003;42565;53.342;-1.534;2024-03-17T05:58:33;2;1;
56688;PMS5003;42565;53.342;-1.534;2024-03-17T06:01:01;2;2;
56688;PMS5003;42565;53.342;-1.534;2024-03-17T06:03:28;2;2;
56688;PMS5003;42565;53.342;-1.534;2024-03-17T06:05:58;2;2;
56688;PMS5003;42565;53.342;-1.534;2024-03-17T06:08:25;1;1;
56688;PMS5003;42565;53.342;-1.534;2024-03-17T06:10:52;1;1;
56688;PMS5003;42565;53.342;-1.534;2024-03-17T06:13:19;1;0;
56688;PMS5003;42565;53.342;-1.534;2024-03-17T06:15:46;1;1;
56688;PMS5003;42565;53.342;-1.534;2024-03-17T06:18:13;1;1;
56688;PMS5003;42565;53.342;-1.534;2024-03-17T06:20:41;0;0;
56688;PMS5003;42565;53.342;-1.534;2024-03-17T06:23:09;1;1;
56688;PMS5003;42565;53.342;-1.534;2024-03-17T06:25:39;1;1;
56688;PMS5003;42565;53.342;-1.534;2024-03-17T06:28:07;0;0;
56688;PMS5003;42565;53.342;-1.534;2024-03-17T06:30:34;1;1;
56688;PMS5003;42565;53.342;-1.534;2024-03-17T06:33:02;1;1;
56688;PMS5003;42565;53.342;-1.534;2024-03-17T06:35:30;1;1;
56688;PMS5003;42565;53.342;-1.534;2024-03-17T06:37:59;0;0;
56688;PMS5003;42565;53.342;-1.534;2024-03-17T06:40:26;0;0;
56688;PMS5003;42565;53.342;-1.534;2024-03-17T06:42:54;0;0;
56688;PMS5003;42565;53.342;-1.534;2024-03-17T06:45:21;0;0;
56688;PMS5003;42565;53.342;-1.534;2024-03-17T06:47:49;0;0;
56688;PMS5003;42565;53.342;-1.534;2024-03-17T06:50:15;0;0;
56688;PMS5003;42565;53.342;-1.534;2024-03-17T06:52:42;0;0;
56688;PMS5003;42565;53.342;-1.534;2024-03-17T06:55:09;0;0;
56688;PMS5003;42565;53.342;-1.534;2024-03-17T06:57:36;0;0;
56688;PMS5003;42565;53.342;-1.534;2024-03-17T07:00:03;0;0;
56688;PMS5003;42565;53.342;-1.534;2024-03-17T07:02:31;0;0;
56688;PMS5003;42565;53.342;-1.534;2024-03-17T07:04:59;0;0;
56688;PMS5003;42565;53.342;-1.534;2024-03-17T07:07:26;0;0;
56688;PMS5003;42565;53.342;-1.534;2024-03-17T07:09:53;1;1;
56688;PMS5003;42565;53.342;-1.534;2024-03-17T07:12:20;0;0;
56688;PMS5003;42565;53.342;-1.534;2024-03-17T07:14:49;0;0;
56688;PMS5003;42565;53.342;-1.534;2024-03-17T07:17:16;0;0;
56688;PMS5003;42565;53.342;-1.534;2024-03-17T07:19:43;2;1;
56688;PMS5003;42565;53.342;-1.534;2024-03-17T07:22:10;0;0;
56688;PMS5003;42565;53.342;-1.534;2024-03-17T07:24:37;1;1;
56688;PMS5003;42565;53.342;-1.534;2024-03-17T07:27:04;0;0;
56688;PMS5003;42565;53.342;-1.534;2024-03-17T07:29:31;0;0;
56688;PMS5003;42565;53.342;-1.534;2024-03-17T07:31:57;1;1;
56688;PMS5003;42565;53.342;-1.534;2024-03-17T07:34:24;0;0;
56688;PMS5003;42565;53.342;-1.534;2024-03-17T07:36:51;1;1;
56688;PMS5003;42565;53.342;-1.534;2024-03-17T07:39:17;0;0;
56688;PMS5003;42565;53.342;-1.534;2024-03-17T07:41:44;0;0;
56688;PMS5003;42565;53.342;-1.534;2024-03-17T07:44:11;0;0;
56688;PMS5003;42565;53.342;-1.534;2024-03-17T07:46:38;2;1;
56688;PMS5003;42565;53.342;-1.534;2024-03-17T07:49:05;1;1;
56688;PMS5003;42565;53.342;-1.534;2024-03-17T07:51:32;1;1;
56688;PMS5003;42565;53.342;-1.534;2024-03-17T07:53:58;0;0;
56688;PMS5003;42565;53.342;-1.534;2024-03-17T07:56:25;0;0;
56688;PMS5003;42565;53.342;-1.534;2024-03-17T07:58:52;0;0;
56688;PMS5003;42565;53.342;-1.534;2024-03-17T08:01:18;0;0;
56688;PMS5003;42565;53.342;-1.534;2024-03-17T08:03:46;0;0;
56688;PMS5003;42565;53.342;-1.534;2024-03-17T08:06:13;0;0;
56688;PMS5003;42565;53.342;-1.534;2024-03-17T08:08:40;0;0;
56688;PMS5003;42565;53.342;-1.534;2024-03-17T08:11:07;0;0;
56688;PMS5003;42565;53.342;-1.534;2024-03-17T08:13:33;0;0;
56688;PMS5003;42565;53.342;-1.534;2024-03-17T08:16:01;0;0;
56688;PMS5003;42565;53.342;-1.534;2024-03-17T08:18:29;1;0;
56688;PMS5003;42565;53.342;-1.534;2024-03-17T08:20:59;0;0;
56688;PMS5003;42565;53.342;-1.534;2024-03-17T08:23:26;1;0;
56688;PMS5003;42565;53.342;-1.534;2024-03-17T08:25:53;0;0;
56688;PMS5003;42565;53.342;-1.534;2024-03-17T08:28:21;1;0;
56688;PMS5003;42565;53.342;-1.534;2024-03-17T08:30:51;1;1;
56688;PMS5003;42565;53.342;-1.534;2024-03-17T08:33:18;0;0;
56688;PMS5003;42565;53.342;-1.534;2024-03-17T08:35:52;0;0;
56688;PMS5003;42565;53.342;-1.534;2024-03-17T08:38:19;0;0;
56688;PMS5003;42565;53.342;-1.534;2024-03-17T08:40:47;0;0;
56688;PMS5003;42565;53.342;-1.534;2024-03-17T08:43:14;0;0;
56688;PMS5003;42565;53.342;-1.534;2024-03-17T08:45:41;0;0;
56688;PMS5003;42565;53.342;-1.534;2024-03-17T08:48:08;0;0;
56688;PMS5003;42565;53.342;-1.534;2024-03-17T08:50:35;1;1;
56688;PMS5003;42565;53.342;-1.534;2024-03-17T08:53:03;0;0;
56688;PMS5003;42565;53.342;-1.534;2024-03-17T08:55:30;0;0;
56688;PMS5003;42565;53.342;-1.534;2024-03-17T08:57:57;0;0;
56688;PMS5003;42565;53.342;-1.534;2024-03-17T09:00:24;0;0;
56688;PMS5003;42565;53.342;-1.534;2024-03-17T09:02:50;1;1;
56688;PMS5003;42565;53.342;-1.534;2024-03-17T09:05:17;1;1;
56688;PMS5003;42565;53.342;-1.534;2024-03-17T09:07:44;0;0;
56688;PMS5003;42565;53.342;-1.534;2024-03-17T09:10:11;2;2;
56688;PMS5003;42565;53.342;-1.534;2024-03-17T09:12:38;2;2;
56688;PMS5003;42565;53.342;-1.534;2024-03-17T09:15:05;1;1;
56688;PMS5003;42565;53.342;-1.534;2024-03-17T09:17:32;1;1;
56688;PMS5003;42565;53.342;-1.534;2024-03-17T09:19:59;2;2;
56688;PMS5003;42565;53.342;-1.534;2024-03-17T09:22:25;2;2;
56688;PMS5003;42565;53.342;-1.534;2024-03-17T09:24:52;2;2;
56688;PMS5003;42565;53.342;-1.534;2024-03-17T09:27:19;2;2;
56688;PMS5003;42565;53.342;-1.534;2024-03-17T09:29:45;3;3;
56688;PMS5003;42565;53.342;-1.534;2024-03-17T09:32:12;3;3;
56688;PMS5003;42565;53.342;-1.534;2024-03-17T09:34:40;3;3;
56688;PMS5003;42565;53.342;-1.534;2024-03-17T09:37:06;1;1;
56688;PMS5003;42565;53.342;-1.534;2024-03-17T09:39:33;4;3;
56688;PMS5003;42565;53.342;-1.534;2024-03-17T09:42:01;3;3;
56688;PMS5003;42565;53.342;-1.534;2024-03-17T09:44:30;4;4;
56688;PMS5003;42565;53.342;-1.534;2024-03-17T09:46:58;4;4;
56688;PMS5003;42565;53.342;-1.534;2024-03-17T09:49:27;5;5;
56688;PMS5003;42565;53.342;-1.534;2024-03-17T09:51:54;5;5;
56688;PMS5003;42565;53.342;-1.534;2024-03-17T09:54:24;4;4;
56688;PMS5003;42565;53.342;-1.534;2024-03-17T09:56:51;6;6;
56688;PMS5003;42565;53.342;-1.534;2024-03-17T09:59:18;5;5;
56688;PMS5003;42565;53.342;-1.534;2024-03-17T10:01:44;5;5;
56688;PMS5003;42565;53.342;-1.534;2024-03-17T10:04:11;4;4;
56688;PMS5003;42565;53.342;-1.534;2024-03-17T10:06:44;3;2;
56688;PMS5003;42565;53.342;-1.534;2024-03-17T10:09:15;3;3;
56688;PMS5003;42565;53.342;-1.534;2024-03-17T10:11:42;4;4;
56688;PMS5003;42565;53.342;-1.534;2024-03-17T10:14:13;3;3;
56688;PMS5003;42565;53.342;-1.534;2024-03-17T10:16:43;2;2;
56688;PMS5003;42565;53.342;-1.534;2024-03-17T10:19:12;2;2;
56688;PMS5003;42565;53.342;-1.534;2024-03-17T10:21:40;1;0;
56688;PMS5003;42565;53.342;-1.534;2024-03-17T10:24:09;1;1;
56688;PMS5003;42565;53.342;-1.534;2024-03-17T10:26:38;2;2;
56688;PMS5003;42565;53.342;-1.534;2024-03-17T10:29:15;1;0;
56688;PMS5003;42565;53.342;-1.534;2024-03-17T10:31:47;1;1;
56688;PMS5003;42565;53.342;-1.534;2024-03-17T10:34:15;2;1;
56688;PMS5003;42565;53.342;-1.534;2024-03-17T10:36:43;2;2;
56688;PMS5003;42565;53.342;-1.534;2024-03-17T10:39:16;2;2;
56688;PMS5003;42565;53.342;-1.534;2024-03-17T10:41:50;2;1;
56688;PMS5003;42565;53.342;-1.534;2024-03-17T10:44:17;1;1;
56688;PMS5003;42565;53.342;-1.534;2024-03-17T10:46:44;0;0;
56688;PMS5003;42565;53.342;-1.534;2024-03-17T10:49:12;1;1;
56688;PMS5003;42565;53.342;-1.534;2024-03-17T10:51:42;1;1;
56688;PMS5003;42565;53.342;-1.534;2024-03-17T10:54:16;1;1;
56688;PMS5003;42565;53.342;-1.534;2024-03-17T10:56:49;1;1;
56688;PMS5003;42565;53.342;-1.534;2024-03-17T10:59:17;2;2;
56688;PMS5003;42565;53.342;-1.534;2024-03-17T11:01:47;2;2;
56688;PMS5003;42565;53.342;-1.534;2024-03-17T11:04:15;1;1;
56688;PMS5003;42565;53.342;-1.534;2024-03-17T11:06:42;1;1;
56688;PMS5003;42565;53.342;-1.534;2024-03-17T11:09:12;0;0;
56688;PMS5003;42565;53.342;-1.534;2024-03-17T11:11:42;1;1;
56688;PMS5003;42565;53.342;-1.534;2024-03-17T11:14:15;1;1;
56688;PMS5003;42565;53.342;-1.534;2024-03-17T11:16:43;1;1;
56688;PMS5003;42565;53.342;-1.534;2024-03-17T11:19:12;1;1;
56688;PMS5003;42565;53.342;-1.534;2024-03-17T11:21:41;1;1;
56688;PMS5003;42565;53.342;-1.534;2024-03-17T11:24:17;1;1;
56688;PMS5003;42565;53.342;-1.534;2024-03-17T11:26:46;2;2;
56688;PMS5003;42565;53.342;-1.534;2024-03-17T11:29:29;0;0;
56688;PMS5003;42565;53.342;-1.534;2024-03-17T11:31:56;1;1;
56688;PMS5003;42565;53.342;-1.534;2024-03-17T11:34:27;1;1;
56688;PMS5003;42565;53.342;-1.534;2024-03-17T11:36:56;1;1;
56688;PMS5003;42565;53.342;-1.534;2024-03-17T11:39:56;0;0;
56688;PMS5003;42565;53.342;-1.534;2024-03-17T11:42:24;1;1;
56688;PMS5003;42565;53.342;-1.534;2024-03-17T11:44:57;1;1;
56688;PMS5003;42565;53.342;-1.534;2024-03-17T11:47:33;1;1;
56688;PMS5003;42565;53.342;-1.534;2024-03-17T11:50:02;1;0;
56688;PMS5003;42565;53.342;-1.534;2024-03-17T11:52:31;1;1;
56688;PMS5003;42565;53.342;-1.534;2024-03-17T11:54:58;0;0;
56688;PMS5003;42565;53.342;-1.534;2024-03-17T11:57:26;0;0;
56688;PMS5003;42565;53.342;-1.534;2024-03-17T11:59:54;1;1;
56688;PMS5003;42565;53.342;-1.534;2024-03-17T12:02:22;0;0;
56688;PMS5003;42565;53.342;-1.534;2024-03-17T12:04:51;1;1;
56688;PMS5003;42565;53.342;-1.534;2024-03-17T12:07:19;1;0;
56688;PMS5003;42565;53.342;-1.534;2024-03-17T12:09:47;2;1;
56688;PMS5003;42565;53.342;-1.534;2024-03-17T12:12:16;1;1;
56688;PMS5003;42565;53.342;-1.534;2024-03-17T12:14:45;0;0;
56688;PMS5003;42565;53.342;-1.534;2024-03-17T12:17:14;0;0;
56688;PMS5003;42565;53.342;-1.534;2024-03-17T12:19:46;1;1;
56688;PMS5003;42565;53.342;-1.534;2024-03-17T12:22:15;0;0;
56688;PMS5003;42565;53.342;-1.534;2024-03-17T12:24:44;0;0;
56688;PMS5003;42565;53.342;-1.534;2024-03-17T12:27:15;0;0;
56688;PMS5003;42565;53.342;-1.534;2024-03-17T12:29:44;0;0;
56688;PMS5003;42565;53.342;-1.534;2024-03-17T12:32:13;0;0;
56688;PMS5003;42565;53.342;-1.534;2024-03-17T12:34:42;0;0;
56688;PMS5003;42565;53.342;-1.534;2024-03-17T12:37:14;0;0;
56688;PMS5003;42565;53.342;-1.534;2024-03-17T12:39:44;1;1;
56688;PMS5003;42565;53.342;-1.534;2024-03-17T12:42:12;0;0;
56688;PMS5003;42565;53.342;-1.534;2024-03-17T12:44:47;1;1;
56688;PMS5003;42565;53.342;-1.534;2024-03-17T12:47:17;1;0;
56688;PMS5003;42565;53.342;-1.534;2024-03-17T12:49:45;0;0;
56688;PMS5003;42565;53.342;-1.534;2024-03-17T12:52:16;0;0;
56688;PMS5003;42565;53.342;-1.534;2024-03-17T12:54:45;0;0;
56688;PMS5003;42565;53.342;-1.534;2024-03-17T12:57:22;0;0;
56688;PMS5003;42565;53.342;-1.534;2024-03-17T12:59:49;1;1;
56688;PMS5003;42565;53.342;-1.534;2024-03-17T13:02:17;1;1;
56688;PMS5003;42565;53.342;-1.534;2024-03-17T13:04:44;1;1;
56688;PMS5003;42565;53.342;-1.534;2024-03-17T13:07:12;1;1;
56688;PMS5003;42565;53.342;-1.534;2024-03-17T13:09:39;1;1;
56688;PMS5003;42565;53.342;-1.534;2024-03-17T13:12:12;0;0;
56688;PMS5003;42565;53.342;-1.534;2024-03-17T13:14:41;1;1;
56688;PMS5003;42565;53.342;-1.534;2024-03-17T13:17:08;1;1;
56688;PMS5003;42565;53.342;-1.534;2024-03-17T13:19:41;1;1;
56688;PMS5003;42565;53.342;-1.534;2024-03-17T13:22:11;0;0;
56688;PMS5003;42565;53.342;-1.534;2024-03-17T13:24:39;1;1;
56688;PMS5003;42565;53.342;-1.534;2024-03-17T13:27:06;1;1;
56688;PMS5003;42565;53.342;-1.534;2024-03-17T13:29:33;0;0;
56688;PMS5003;42565;53.342;-1.534;2024-03-17T13:32:00;1;1;
56688;PMS5003;42565;53.342;-1.534;2024-03-17T13:34:28;1;1;
56688;PMS5003;42565;53.342;-1.534;2024-03-17T13:36:55;1;1;
56688;PMS5003;42565;53.342;-1.534;2024-03-17T13:39:28;0;0;
56688;PMS5003;42565;53.342;-1.534;2024-03-17T13:41:56;2;2;
56688;PMS5003;42565;53.342;-1.534;2024-03-17T13:44:23;0;0;
56688;PMS5003;42565;53.342;-1.534;2024-03-17T13:46:50;0;0;
56688;PMS5003;42565;53.342;-1.534;2024-03-17T13:49:17;1;1;
56688;PMS5003;42565;53.342;-1.534;2024-03-17T13:51:45;1;1;
56688;PMS5003;42565;53.342;-1.534;2024-03-17T13:54:12;0;0;
56688;PMS5003;42565;53.342;-1.534;2024-03-17T13:56:40;0;0;
56688;PMS5003;42565;53.342;-1.534;2024-03-17T13:59:07;0;0;
56688;PMS5003;42565;53.342;-1.534;2024-03-17T14:01:35;0;0;
56688;PMS5003;42565;53.342;-1.534;2024-03-17T14:04:02;0;0;
56688;PMS5003;42565;53.342;-1.534;2024-03-17T14:06:30;0;0;
56688;PMS5003;42565;53.342;-1.534;2024-03-17T14:08:57;0;0;
56688;PMS5003;42565;53.342;-1.534;2024-03-17T14:11:25;1;0;
56688;PMS5003;42565;53.342;-1.534;2024-03-17T14:13:52;1;1;
56688;PMS5003;42565;53.342;-1.534;2024-03-17T14:16:20;0;0;
56688;PMS5003;42565;53.342;-1.534;2024-03-17T14:18:47;0;0;
56688;PMS5003;42565;53.342;-1.534;2024-03-17T14:21:14;0;0;
56688;PMS5003;42565;53.342;-1.534;2024-03-17T14:23:42;1;1;
56688;PMS5003;42565;53.342;-1.534;2024-03-17T14:26:09;0;0;
56688;PMS5003;42565;53.342;-1.534;2024-03-17T14:28:37;0;0;
56688;PMS5003;42565;53.342;-1.534;2024-03-17T14:31:04;0;0;
56688;PMS5003;42565;53.342;-1.534;2024-03-17T14:33:32;1;1;
56688;PMS5003;42565;53.342;-1.534;2024-03-17T14:35:59;0;0;
56688;PMS5003;42565;53.342;-1.534;2024-03-17T14:38:27;0;0;
56688;PMS5003;42565;53.342;-1.534;2024-03-17T14:40:53;1;1;
56688;PMS5003;42565;53.342;-1.534;2024-03-17T14:43:21;2;1;
56688;PMS5003;42565;53.342;-1.534;2024-03-17T14:45:48;0;0;
56688;PMS5003;42565;53.342;-1.534;2024-03-17T14:48:16;1;1;
56688;PMS5003;42565;53.342;-1.534;2024-03-17T14:50:43;0;0;
56688;PMS5003;42565;53.342;-1.534;2024-03-17T14:53:11;0;0;
56688;PMS5003;42565;53.342;-1.534;2024-03-17T14:55:38;1;1;
56688;PMS5003;42565;53.342;-1.534;2024-03-17T14:58:05;0;0;
56688;PMS5003;42565;53.342;-1.534;2024-03-17T15:00:32;1;1;
56688;PMS5003;42565;53.342;-1.534;2024-03-17T15:03:00;0;0;
56688;PMS5003;42565;53.342;-1.534;2024-03-17T15:05:27;0;0;
56688;PMS5003;42565;53.342;-1.534;2024-03-17T15:07:55;0;0;
56688;PMS5003;42565;53.342;-1.534;2024-03-17T15:10:22;0;0;
56688;PMS5003;42565;53.342;-1.534;2024-03-17T15:12:50;0;0;
56688;PMS5003;42565;53.342;-1.534;2024-03-17T15:15:17;1;0;
56688;PMS5003;42565;53.342;-1.534;2024-03-17T15:17:45;0;0;
56688;PMS5003;42565;53.342;-1.534;2024-03-17T15:20:12;1;1;
56688;PMS5003;42565;53.342;-1.534;2024-03-17T15:22:40;0;0;
56688;PMS5003;42565;53.342;-1.534;2024-03-17T15:25:07;1;1;
56688;PMS5003;42565;53.342;-1.534;2024-03-17T15:27:35;0;0;
56688;PMS5003;42565;53.342;-1.534;2024-03-17T15:30:02;2;0;
56688;PMS5003;42565;53.342;-1.534;2024-03-17T15:32:30;1;1;
56688;PMS5003;42565;53.342;-1.534;2024-03-17T15:34:57;0;0;
56688;PMS5003;42565;53.342;-1.534;2024-03-17T15:37:25;1;1;
56688;PMS5003;42565;53.342;-1.534;2024-03-17T15:39:52;0;0;
56688;PMS5003;42565;53.342;-1.534;2024-03-17T15:42:20;0;0;
56688;PMS5003;42565;53.342;-1.534;2024-03-17T15:44:47;0;0;
56688;PMS5003;42565;53.342;-1.534;2024-03-17T15:47:14;0;0;
56688;PMS5003;42565;53.342;-1.534;2024-03-17T15:49:41;2;1;
56688;PMS5003;42565;53.342;-1.534;2024-03-17T15:52:09;1;0;
56688;PMS5003;42565;53.342;-1.534;2024-03-17T15:54:36;0;0;
56688;PMS5003;42565;53.342;-1.534;2024-03-17T15:57:03;2;1;
56688;PMS5003;42565;53.342;-1.534;2024-03-17T15:59:30;1;0;
56688;PMS5003;42565;53.342;-1.534;2024-03-17T16:01:57;0;0;
56688;PMS5003;42565;53.342;-1.534;2024-03-17T16:04:24;0;0;
56688;PMS5003;42565;53.342;-1.534;2024-03-17T16:06:51;0;0;
56688;PMS5003;42565;53.342;-1.534;2024-03-17T16:09:19;1;1;
56688;PMS5003;42565;53.342;-1.534;2024-03-17T16:11:47;1;0;
56688;PMS5003;42565;53.342;-1.534;2024-03-17T16:14:15;0;0;
56688;PMS5003;42565;53.342;-1.534;2024-03-17T16:16:42;0;0;
56688;PMS5003;42565;53.342;-1.534;2024-03-17T16:19:10;2;1;
56688;PMS5003;42565;53.342;-1.534;2024-03-17T16:21:38;1;0;
56688;PMS5003;42565;53.342;-1.534;2024-03-17T16:24:06;0;0;
56688;PMS5003;42565;53.342;-1.534;2024-03-17T16:26:37;2;1;
56688;PMS5003;42565;53.342;-1.534;2024-03-17T16:29:04;0;0;
56688;PMS5003;42565;53.342;-1.534;2024-03-17T16:31:32;0;0;